createdAt,value
2023-03-17T10:43:29.095Z,19.98
2023-03-17T10:47:28.990Z,20.18
2023-03-17T10:51:28.967Z,20.32
2023-03-17T10:55:28.934Z,21.00
2023-03-17T11:07:29.120Z,21.36
2023-03-17T11:11:28.973Z,21.32
2023-03-17T11:15:29.114Z,21.31
2023-03-17T11:19:29.101Z,21.71
2023-03-17T11:23:29.106Z,20.80
2023-03-17T11:31:29.187Z,18.40
2023-03-17T11:35:29.119Z,17.10
2023-03-17T11:39:28.720Z,16.07
2023-03-17T11:43:29.092Z,16.96
2023-03-17T11:47:28.646Z,17.76
2023-03-17T11:51:28.611Z,18.57
2023-03-17T11:55:28.582Z,18.82
2023-03-17T11:59:28.624Z,19.13
2023-03-17T12:03:29.168Z,19.18
2023-03-17T12:07:28.768Z,19.25
2023-03-17T12:15:29.132Z,19.38
2023-03-17T12:19:29.140Z,18.91
2023-03-17T12:23:28.912Z,19.02
2023-03-17T12:27:29.122Z,19.29
2023-03-17T12:31:29.702Z,19.70
2023-03-17T12:35:29.869Z,20.07
2023-03-17T12:39:29.484Z,20.39
2023-03-17T12:43:29.624Z,20.42
2023-03-17T12:47:29.813Z,20.33
2023-03-17T12:51:29.990Z,20.10
2023-03-17T12:55:30.310Z,19.69
2023-03-17T12:59:30.356Z,19.21
2023-03-17T13:03:30.555Z,19.00
2023-03-17T13:07:31.146Z,18.67
2023-03-17T13:11:31.143Z,18.41
2023-03-17T13:15:31.363Z,18.15
2023-03-17T13:19:31.090Z,18.08
2023-03-17T13:23:31.207Z,17.94
2023-03-17T13:27:31.363Z,17.70
2023-03-17T13:31:31.609Z,17.47
2023-03-17T13:39:31.786Z,16.78
2023-03-17T13:43:31.948Z,16.34
2023-03-17T13:47:32.141Z,16.35
2023-03-17T13:51:32.317Z,16.70
2023-03-17T13:55:32.760Z,16.71
2023-03-17T13:59:35.009Z,16.73
2023-03-17T14:03:33.102Z,16.73
2023-03-17T14:07:33.447Z,16.70
2023-03-17T14:11:33.496Z,16.56
2023-03-17T14:15:33.493Z,16.56
2023-03-17T14:19:33.565Z,16.65
2023-03-17T14:23:33.725Z,16.41
2023-03-17T14:27:33.916Z,16.44
2023-03-17T14:31:34.129Z,16.20
2023-03-17T14:35:34.291Z,16.24
2023-03-17T14:39:34.493Z,16.41
2023-03-17T14:43:34.724Z,16.36
2023-03-17T17:43:34.084Z,15.66
2023-03-17T17:47:33.902Z,15.78
2023-03-17T17:51:33.889Z,15.83
2023-03-17T17:55:33.886Z,15.89
2023-03-17T17:59:33.820Z,15.82
2023-03-17T18:03:33.781Z,15.93
2023-03-17T18:07:33.747Z,15.93
2023-03-17T18:11:33.702Z,16.10
2023-03-17T18:15:33.654Z,16.28
2023-03-17T18:19:33.637Z,16.41
2023-03-17T18:23:33.591Z,16.56
2023-03-17T18:27:33.653Z,16.55
2023-03-17T18:31:33.622Z,16.67
2023-03-17T18:35:33.578Z,16.76
2023-03-17T18:39:33.462Z,16.82
2023-03-17T18:43:33.421Z,16.88
2023-03-17T18:47:33.388Z,16.93
2023-03-17T18:51:33.352Z,16.96
2023-03-17T18:55:33.345Z,16.98
2023-03-17T18:59:33.399Z,16.98
2023-03-17T19:03:33.439Z,16.94
2023-03-17T19:19:33.316Z,17.41
2023-03-17T19:23:33.520Z,17.55
2023-03-17T19:27:33.735Z,17.70
2023-03-17T19:31:33.682Z,17.70
2023-03-17T19:35:33.705Z,17.73
2023-03-17T19:39:33.630Z,17.74
2023-03-17T19:43:40.675Z,17.64
2023-03-17T19:47:34.552Z,17.71
2023-03-17T19:51:33.509Z,17.67
2023-03-17T19:55:33.789Z,17.62
2023-03-17T19:59:33.628Z,17.73
2023-03-17T20:03:33.575Z,17.82
2023-03-17T20:07:33.588Z,17.86
2023-03-17T20:11:33.520Z,17.77
2023-03-17T20:19:33.430Z,17.77
2023-03-17T20:31:33.933Z,17.69
2023-03-17T22:51:34.403Z,18.61
2023-03-17T22:55:34.385Z,18.61
2023-03-17T22:59:34.392Z,18.67
2023-03-17T23:07:47.855Z,18.74
2023-03-17T23:19:34.905Z,18.80
2023-03-17T23:23:34.921Z,18.77
2023-03-17T23:27:35.087Z,18.83
2023-03-17T23:31:35.236Z,18.89
